Time;durP1;ratioP1;P1;durP2;ratioP2;P2;SDS_P1;SDS_P2;PMS_P1;PMS_P2;Temp;Humidity;BMP_temperature;BMP_pressure;BME280_temperature;BME280_humidity;BME280_pressure;Samples;Min_cycle;Max_cycle;Signal;HPM_P1;HPM_P2
2022/11/12 00:02:16;;;;;;;73.88;52.45;;;17.70;69.20;;;;;;4948476;28;96348;-54
2022/11/12 00:04:41;;;;;;;72.63;52.70;;;17.70;69.50;;;;;;4947546;28;95817;-54
2022/11/12 00:07:07;;;;;;;73.15;53.00;;;17.70;69.40;;;;;;4945875;28;96508;-54
2022/11/12 00:09:33;;;;;;;73.65;53.30;;;17.70;69.40;;;;;;4939049;28;95976;-55
2022/11/12 00:11:58;;;;;;;72.97;52.42;;;17.70;69.40;;;;;;4949499;28;96140;-56
2022/11/12 00:14:24;;;;;;;72.65;52.63;;;17.60;69.00;;;;;;4943451;28;96454;-53
2022/11/12 00:16:50;;;;;;;72.20;52.60;;;17.70;69.00;;;;;;4945458;28;95465;-55
2022/11/12 00:19:15;;;;;;;72.82;52.33;;;17.60;69.20;;;;;;4947990;28;95949;-54
2022/11/12 00:21:41;;;;;;;72.95;52.28;;;17.60;69.20;;;;;;4940938;28;95637;-55
2022/11/12 00:24:06;;;;;;;72.22;52.95;;;17.60;69.30;;;;;;4947851;28;94791;-55
2022/11/12 00:26:32;;;;;;;72.97;52.83;;;17.70;69.20;;;;;;4937243;28;96328;-55
2022/11/12 00:28:58;;;;;;;73.97;52.10;;;17.60;69.10;;;;;;4947210;28;96216;-55
2022/11/12 00:31:23;;;;;;;71.80;52.53;;;17.60;69.30;;;;;;4937117;28;98568;-54
2022/11/12 00:33:49;;;;;;;72.45;52.15;;;17.60;69.40;;;;;;4942318;28;95656;-55
2022/11/12 00:36:15;;;;;;;72.20;52.42;;;17.50;69.20;;;;;;4952107;28;98277;-55
2022/11/12 00:38:40;;;;;;;71.50;52.00;;;17.50;69.00;;;;;;4943383;28;98405;-55
2022/11/12 00:41:06;;;;;;;73.47;52.63;;;17.50;69.00;;;;;;4948578;28;95269;-55
2022/11/12 00:43:32;;;;;;;73.85;52.55;;;17.50;69.30;;;;;;4945679;28;95134;-54
2022/11/12 00:45:57;;;;;;;73.05;53.03;;;17.50;69.00;;;;;;4946009;28;96648;-56
2022/11/12 00:48:23;;;;;;;72.50;52.67;;;17.50;69.30;;;;;;4948209;28;94434;-54
2022/11/12 00:50:49;;;;;;;71.72;51.88;;;17.50;69.30;;;;;;4948286;28;95517;-52
2022/11/12 00:53:14;;;;;;;72.05;52.10;;;17.50;69.20;;;;;;4943584;28;95317;-55
2022/11/12 00:55:40;;;;;;;72.18;52.70;;;17.40;69.10;;;;;;4940385;28;96836;-55
2022/11/12 00:58:06;;;;;;;70.93;51.80;;;17.40;69.10;;;;;;4938007;28;96012;-54
2022/11/12 01:00:31;;;;;;;71.25;51.90;;;17.40;69.20;;;;;;4950512;28;99374;-52
2022/11/12 01:02:57;;;;;;;71.00;51.75;;;17.40;69.10;;;;;;4942761;28;95552;-54
2022/11/12 01:05:22;;;;;;;72.00;52.03;;;17.40;69.20;;;;;;4947205;28;95766;-55
2022/11/12 01:07:48;;;;;;;72.75;52.10;;;17.40;69.00;;;;;;4945179;28;95739;-54
2022/11/12 01:10:14;;;;;;;72.30;52.75;;;17.40;69.20;;;;;;4943951;28;95127;-54
2022/11/12 01:12:40;;;;;;;72.68;52.08;;;17.30;69.10;;;;;;4949674;28;94581;-52
2022/11/12 01:15:06;;;;;;;72.13;51.88;;;17.30;69.10;;;;;;4936933;28;96969;-55
2022/11/12 01:17:32;;;;;;;70.95;51.58;;;17.30;69.10;;;;;;4947476;28;97513;-55
2022/11/12 01:19:58;;;;;;;71.57;52.40;;;17.30;69.30;;;;;;4945216;28;96701;-55
2022/11/12 01:22:24;;;;;;;71.75;51.95;;;17.30;69.10;;;;;;4948678;28;94706;-55
2022/11/12 01:24:49;;;;;;;72.45;52.05;;;17.30;69.20;;;;;;4946290;28;95636;-55
2022/11/12 01:27:15;;;;;;;71.00;51.75;;;17.30;69.10;;;;;;4946504;28;95276;-54
2022/11/12 01:29:41;;;;;;;72.68;52.03;;;17.30;69.00;;;;;;4949056;28;95116;-54
2022/11/12 01:32:07;;;;;;;71.05;51.90;;;17.30;69.10;;;;;;4947210;28;95133;-52
2022/11/12 01:34:32;;;;;;;71.20;52.33;;;17.30;69.00;;;;;;4947399;28;95482;-54
2022/11/12 01:36:58;;;;;;;70.47;51.50;;;17.30;69.10;;;;;;4955978;28;94547;-54
2022/11/12 01:39:24;;;;;;;70.90;51.38;;;17.30;69.00;;;;;;4955583;28;95396;-53
2022/11/12 01:41:50;;;;;;;70.82;51.75;;;17.30;69.10;;;;;;4945566;28;95189;-54
2022/11/12 01:44:21;;;;;;;71.15;51.63;;;17.20;69.00;;;;;;4947640;28;101689;-54
2022/11/12 01:47:06;;;;;;;71.07;51.85;;;17.20;69.10;;;;;;4943732;28;97232;-52
2022/11/12 01:49:40;;;;;;;70.63;51.60;;;17.10;69.30;;;;;;4942680;28;96790;-54
2022/11/12 01:52:25;;;;;;;70.45;51.75;;;17.10;69.20;;;;;;4948886;28;95251;-55
2022/11/12 01:54:53;;;;;;;71.00;51.60;;;17.10;69.30;;;;;;4949233;28;95497;-50
2022/11/12 01:57:25;;;;;;;71.80;51.83;;;17.10;69.10;;;;;;4937284;28;95081;-54
2022/11/12 01:59:55;;;;;;;70.93;52.00;;;17.10;69.00;;;;;;4946678;28;96078;-53
2022/11/12 02:02:20;;;;;;;71.00;51.45;;;17.10;69.10;;;;;;4949335;28;94756;-55
2022/11/12 02:04:47;;;;;;;71.00;51.38;;;17.10;69.10;;;;;;4947151;28;95292;-52
2022/11/12 02:07:14;;;;;;;70.80;52.05;;;17.10;69.20;;;;;;4945708;28;94913;-55
2022/11/12 02:09:40;;;;;;;70.78;51.33;;;17.10;69.20;;;;;;4944464;28;96047;-53
2022/11/12 02:12:06;;;;;;;70.72;51.28;;;17.10;69.20;;;;;;4949565;28;94935;-52
2022/11/12 02:14:33;;;;;;;71.25;52.13;;;17.10;69.10;;;;;;4948654;28;100049;-53
2022/11/12 02:16:59;;;;;;;70.63;51.53;;;17.10;69.10;;;;;;4955622;28;94818;-54
2022/11/12 02:19:25;;;;;;;70.95;51.63;;;17.00;69.10;;;;;;4960894;28;96920;-54
2022/11/12 02:21:51;;;;;;;70.78;51.60;;;17.00;69.10;;;;;;4958391;28;95834;-54
2022/11/12 02:24:17;;;;;;;70.32;51.55;;;17.00;69.10;;;;;;4950993;28;97552;-55
2022/11/12 02:26:47;;;;;;;70.88;51.78;;;17.00;69.00;;;;;;4946406;28;94008;-53
2022/11/12 02:29:13;;;;;;;70.78;52.40;;;17.00;69.10;;;;;;4940788;28;95550;-52
2022/11/12 02:31:39;;;;;;;70.78;51.22;;;17.00;69.20;;;;;;4948100;28;96801;-53
2022/11/12 02:34:04;;;;;;;70.93;51.47;;;17.00;69.20;;;;;;4945089;28;96720;-55
2022/11/12 02:36:30;;;;;;;70.45;51.70;;;17.00;69.10;;;;;;4955077;28;95241;-53
2022/11/12 02:38:57;;;;;;;72.18;51.20;;;17.00;69.30;;;;;;4952690;28;100891;-55
2022/11/12 02:41:22;;;;;;;70.53;51.45;;;17.00;69.20;;;;;;4953241;28;95171;-55
2022/11/12 02:43:48;;;;;;;70.90;51.92;;;16.90;69.20;;;;;;4946440;28;95096;-55
2022/11/12 02:46:14;;;;;;;71.38;51.50;;;16.90;69.20;;;;;;4948462;28;97283;-54
2022/11/12 02:48:40;;;;;;;70.78;51.92;;;16.90;69.10;;;;;;4947808;28;94703;-54
2022/11/12 02:51:06;;;;;;;71.50;51.72;;;16.90;69.30;;;;;;4956327;28;94122;-54
2022/11/12 02:53:33;;;;;;;71.82;51.60;;;16.90;69.20;;;;;;4945558;28;95615;-55
2022/11/12 02:55:59;;;;;;;71.65;51.65;;;16.90;69.10;;;;;;4943593;28;95374;-55
2022/11/12 02:58:25;;;;;;;70.90;52.00;;;16.90;68.90;;;;;;4947827;28;95933;-53
2022/11/12 03:00:51;;;;;;;70.95;51.88;;;16.90;69.10;;;;;;4948076;28;95049;-55
2022/11/12 03:03:16;;;;;;;70.78;51.53;;;16.90;69.10;;;;;;4949272;28;95471;-55
2022/11/12 03:05:44;;;;;;;70.57;51.40;;;16.90;69.10;;;;;;4946314;28;95588;-56
2022/11/12 03:08:09;;;;;;;72.00;51.97;;;16.80;69.10;;;;;;4953334;28;95544;-55
2022/11/12 03:10:39;;;;;;;71.38;51.70;;;16.80;69.10;;;;;;4943812;28;95615;-55
2022/11/12 03:13:05;;;;;;;71.60;51.88;;;16.80;69.20;;;;;;4952478;28;95603;-55
2022/11/12 03:15:31;;;;;;;70.53;51.70;;;16.80;69.10;;;;;;4944544;28;96175;-54
2022/11/12 03:17:57;;;;;;;70.75;51.30;;;16.80;69.10;;;;;;4951417;28;96911;-56
2022/11/12 03:20:24;;;;;;;70.45;51.75;;;16.70;69.10;;;;;;4951342;28;94863;-55
2022/11/12 03:22:58;;;;;;;70.68;51.65;;;16.70;69.20;;;;;;4950545;28;96269;-57
2022/11/12 03:25:26;;;;;;;70.65;51.90;;;16.70;69.00;;;;;;4938487;28;98462;-55
2022/11/12 03:28:07;;;;;;;70.45;51.45;;;16.70;69.10;;;;;;4950077;28;96300;-55
2022/11/12 03:30:35;;;;;;;69.90;51.70;;;16.70;69.20;;;;;;4944860;28;95933;-56
2022/11/12 03:33:01;;;;;;;70.55;51.63;;;16.70;69.00;;;;;;4945830;28;99114;-54
2022/11/12 03:35:27;;;;;;;70.15;51.15;;;16.70;69.00;;;;;;4949825;28;95170;-54
2022/11/12 03:37:52;;;;;;;70.18;51.25;;;16.70;69.20;;;;;;4952701;28;97037;-55
2022/11/12 03:40:19;;;;;;;70.30;51.45;;;16.70;69.20;;;;;;4947348;28;95012;-54
2022/11/12 03:42:49;;;;;;;70.10;51.58;;;16.70;69.10;;;;;;4941452;28;97433;-55
2022/11/12 03:45:16;;;;;;;71.10;51.75;;;16.70;69.20;;;;;;4942908;28;95621;-54
2022/11/12 03:47:43;;;;;;;70.28;51.08;;;16.70;69.00;;;;;;4952032;28;96367;-54
2022/11/12 03:50:09;;;;;;;70.18;51.25;;;16.70;69.10;;;;;;4944642;28;97555;-54
2022/11/12 03:52:35;;;;;;;69.65;51.13;;;16.70;69.00;;;;;;4940762;28;95847;-55
2022/11/12 03:55:01;;;;;;;70.15;51.55;;;16.70;69.10;;;;;;4941489;28;100148;-54
2022/11/12 03:57:26;;;;;;;70.20;51.40;;;16.60;69.10;;;;;;4944355;28;97878;-54
2022/11/12 03:59:52;;;;;;;70.10;51.33;;;16.60;69.20;;;;;;4941298;28;95468;-54
2022/11/12 04:02:18;;;;;;;70.43;51.70;;;16.60;69.20;;;;;;4938488;28;98050;-55
2022/11/12 04:10:12;;;;;;;70.22;51.67;;;16.60;69.20;;;;;;4948216;28;94873;-54
2022/11/12 04:15:22;;;;;;;69.47;51.05;;;16.60;69.10;;;;;;4944606;28;95590;-56
2022/11/12 04:23:16;;;;;;;70.32;51.38;;;16.50;69.20;;;;;;4945351;28;98191;-55
2022/11/12 04:28:27;;;;;;;70.43;51.10;;;16.50;69.20;;;;;;4941525;28;95139;-55
2022/11/12 04:30:52;;;;;;;69.97;51.55;;;16.50;69.20;;;;;;4940883;28;95691;-56
2022/11/12 04:33:18;;;;;;;69.82;50.97;;;16.40;69.20;;;;;;4942499;28;95158;-54
2022/11/12 04:35:44;;;;;;;69.15;50.92;;;16.40;69.30;;;;;;4951220;28;96516;-54
2022/11/12 04:38:09;;;;;;;69.38;51.15;;;16.40;69.30;;;;;;4941855;28;96365;-56
2022/11/12 04:46:04;;;;;;;70.20;51.35;;;16.40;69.30;;;;;;4946081;28;95167;-55
2022/11/12 04:48:30;;;;;;;69.47;50.75;;;16.30;69.20;;;;;;4945009;28;97618;-54
2022/11/12 04:50:59;;;;;;;71.53;51.53;;;16.40;69.30;;;;;;4936431;28;95636;-56
2022/11/12 04:53:25;;;;;;;69.95;51.10;;;16.40;69.10;;;;;;4939197;28;95450;-55
2022/11/12 04:55:52;;;;;;;70.22;51.83;;;16.30;69.10;;;;;;4939760;28;99446;-55
2022/11/12 04:58:19;;;;;;;69.93;51.40;;;16.30;69.10;;;;;;4946584;28;97710;-56
2022/11/12 05:00:45;;;;;;;69.80;51.08;;;16.30;69.30;;;;;;4938346;28;95153;-54
2022/11/12 05:03:11;;;;;;;69.57;51.00;;;16.30;69.00;;;;;;4950932;28;98018;-55
2022/11/12 05:05:37;;;;;;;69.32;51.30;;;16.30;69.20;;;;;;4945175;28;96205;-55
2022/11/12 05:08:02;;;;;;;69.85;50.90;;;16.30;69.20;;;;;;4946302;28;97549;-53
2022/11/12 05:10:29;;;;;;;69.85;50.95;;;16.30;69.20;;;;;;4938656;28;95397;-54
2022/11/12 05:12:55;;;;;;;69.90;51.30;;;16.30;69.10;;;;;;4937797;28;96316;-54
2022/11/12 05:15:21;;;;;;;70.38;51.08;;;16.30;69.00;;;;;;4947985;28;95184;-56
2022/11/12 05:17:46;;;;;;;69.57;50.88;;;16.30;69.10;;;;;;4940915;28;98768;-54
2022/11/12 05:20:13;;;;;;;69.88;51.22;;;16.20;69.30;;;;;;4942223;28;95628;-55
2022/11/12 05:22:39;;;;;;;70.18;51.53;;;16.20;69.10;;;;;;4937674;28;99876;-55
2022/11/12 05:25:06;;;;;;;69.40;50.65;;;16.20;69.10;;;;;;4942534;28;99187;-55
2022/11/12 05:27:32;;;;;;;69.18;51.28;;;16.20;69.00;;;;;;4939301;28;97817;-54
2022/11/12 05:29:58;;;;;;;69.32;51.25;;;16.20;69.10;;;;;;4936143;28;95546;-55
2022/11/12 05:32:24;;;;;;;70.03;51.08;;;16.20;69.10;;;;;;4942645;28;97307;-52
2022/11/12 05:34:49;;;;;;;69.18;51.05;;;16.20;69.00;;;;;;4952042;28;95256;-55
2022/11/12 05:37:16;;;;;;;69.38;50.90;;;16.20;69.00;;;;;;4942303;28;96183;-55
2022/11/12 05:39:41;;;;;;;69.03;50.90;;;16.20;69.10;;;;;;4951796;28;95059;-54
2022/11/12 05:42:08;;;;;;;70.43;51.03;;;16.20;69.10;;;;;;4949628;28;98149;-56
2022/11/12 05:44:33;;;;;;;69.05;50.92;;;16.10;69.20;;;;;;4947487;28;95617;-55
2022/11/12 05:46:59;;;;;;;69.43;50.80;;;16.20;69.10;;;;;;4947441;28;96067;-53
2022/11/12 05:49:25;;;;;;;69.57;50.63;;;16.20;69.10;;;;;;4941603;28;95515;-55
2022/11/12 05:51:51;;;;;;;69.53;50.90;;;16.20;69.00;;;;;;4948465;28;97059;-56
2022/11/12 05:54:17;;;;;;;69.22;50.80;;;16.20;69.10;;;;;;4946319;28;95895;-55
2022/11/12 05:56:43;;;;;;;69.05;50.70;;;16.20;68.80;;;;;;4944696;28;95506;-56
2022/11/12 05:59:10;;;;;;;71.20;51.33;;;16.20;68.70;;;;;;4949847;28;96856;-56
2022/11/12 06:01:45;;;;;;;69.00;50.60;;;16.20;68.60;;;;;;4941686;28;95915;-55
2022/11/12 06:04:14;;;;;;;69.72;51.03;;;16.30;68.60;;;;;;4940226;28;95917;-56
2022/11/12 06:06:41;;;;;;;70.22;51.22;;;16.20;68.40;;;;;;4943439;28;95033;-54
2022/11/12 06:09:07;;;;;;;69.90;51.40;;;16.20;68.70;;;;;;4949488;28;94609;-55
2022/11/12 06:11:33;;;;;;;69.35;50.80;;;16.20;68.60;;;;;;4947220;28;95849;-56
2022/11/12 06:14:00;;;;;;;69.60;51.17;;;16.20;68.60;;;;;;4939544;28;95483;-55
2022/11/12 06:16:25;;;;;;;70.32;50.75;;;16.20;68.60;;;;;;4943857;28;98089;-56
2022/11/12 06:18:51;;;;;;;69.82;51.20;;;16.20;68.70;;;;;;4952830;28;95464;-53
2022/11/12 06:21:23;;;;;;;69.90;51.63;;;16.30;68.50;;;;;;4944387;28;96589;-52
2022/11/12 06:23:55;;;;;;;69.47;50.63;;;16.20;68.50;;;;;;4947548;28;95112;-55
2022/11/12 06:26:21;;;;;;;69.65;51.03;;;16.20;68.70;;;;;;4943542;28;96767;-55
2022/11/12 06:28:48;;;;;;;71.20;51.78;;;16.30;68.60;;;;;;4946961;28;96391;-55
2022/11/12 06:31:14;;;;;;;70.63;51.08;;;16.30;68.40;;;;;;4945720;28;96616;-55
2022/11/12 06:33:41;;;;;;;70.40;51.33;;;16.20;68.50;;;;;;4944028;28;95458;-55
2022/11/12 06:36:07;;;;;;;69.00;50.60;;;16.20;68.20;;;;;;4947119;28;100203;-55
2022/11/12 06:38:36;;;;;;;69.47;51.15;;;16.20;68.60;;;;;;4942311;28;99585;-55
2022/11/12 06:41:02;;;;;;;69.85;51.38;;;16.20;68.10;;;;;;4947547;28;98303;-54
2022/11/12 06:43:30;;;;;;;72.57;51.70;;;16.20;68.40;;;;;;4947683;28;99643;-54
2022/11/12 06:46:03;;;;;;;70.43;51.03;;;16.20;68.30;;;;;;4951796;28;95104;-53
2022/11/12 06:48:30;;;;;;;70.45;51.67;;;16.20;68.90;;;;;;4939511;28;95753;-56
2022/11/12 06:50:56;;;;;;;69.68;50.92;;;16.20;68.20;;;;;;4943554;28;95218;-55
2022/11/12 06:53:23;;;;;;;69.05;51.08;;;16.20;68.40;;;;;;4940423;28;95075;-56
2022/11/12 06:55:49;;;;;;;70.28;51.42;;;16.20;68.20;;;;;;4948069;28;95444;-52
2022/11/12 06:58:15;;;;;;;69.82;50.92;;;16.20;68.30;;;;;;4944953;28;94652;-56
2022/11/12 07:00:40;;;;;;;69.93;51.10;;;16.20;69.00;;;;;;4950978;28;95510;-56
2022/11/12 07:03:07;;;;;;;68.93;51.10;;;16.20;68.20;;;;;;4945932;28;95753;-55
2022/11/12 07:05:39;;;;;;;71.03;50.88;;;16.20;68.40;;;;;;4939479;28;98097;-54
2022/11/12 07:08:05;;;;;;;;;;;16.10;68.50;;;;;;4946322;28;95286;-55
2022/11/12 07:10:31;;;;;;;70.28;51.38;;;16.20;68.40;;;;;;4947009;28;95961;-54
2022/11/12 07:12:57;;;;;;;69.68;50.92;;;16.20;68.10;;;;;;4940836;28;95248;-54
2022/11/12 07:15:23;;;;;;;69.43;50.88;;;16.10;68.10;;;;;;4952534;28;95142;-56
2022/11/12 07:17:49;;;;;;;69.50;51.10;;;16.20;68.20;;;;;;4949561;28;94868;-56
2022/11/12 07:20:15;;;;;;;69.55;50.45;;;16.20;68.10;;;;;;4944995;28;95895;-56
2022/11/12 07:22:41;;;;;;;69.85;50.72;;;16.20;68.00;;;;;;4950018;28;94211;-54
2022/11/12 07:25:07;;;;;;;69.72;50.80;;;16.20;67.90;;;;;;4943468;28;95862;-55
2022/11/12 07:27:32;;;;;;;68.55;50.42;;;16.20;67.90;;;;;;4951439;28;95120;-55
2022/11/12 07:29:58;;;;;;;69.93;50.50;;;16.20;68.00;;;;;;4948559;28;96623;-55
2022/11/12 07:32:23;;;;;;;69.85;50.88;;;16.20;67.90;;;;;;4951003;28;95965;-56
2022/11/12 07:34:49;;;;;;;72.00;50.95;;;16.10;67.90;;;;;;4943705;28;96186;-54
2022/11/12 07:37:15;;;;;;;69.47;50.85;;;16.10;68.00;;;;;;4950952;28;95131;-56
2022/11/12 07:39:41;;;;;;;70.88;50.95;;;16.10;67.80;;;;;;4937097;28;95411;-53
2022/11/12 07:42:06;;;;;;;70.85;51.55;;;16.10;68.10;;;;;;4945161;28;95137;-55
2022/11/12 07:44:32;;;;;;;69.78;50.67;;;16.20;68.00;;;;;;4950007;28;94960;-56
2022/11/12 07:46:58;;;;;;;70.38;50.60;;;16.20;67.70;;;;;;4948225;28;94492;-55
2022/11/12 07:49:23;;;;;;;69.85;50.85;;;16.20;67.80;;;;;;4938966;28;95118;-54
2022/11/12 07:51:49;;;;;;;69.18;50.65;;;16.20;67.70;;;;;;4953933;28;95407;-55
2022/11/12 07:54:14;;;;;;;69.07;50.78;;;16.20;68.40;;;;;;4946215;28;96395;-56
2022/11/12 07:56:40;;;;;;;70.40;51.45;;;16.20;67.60;;;;;;4942215;28;97161;-55
2022/11/12 07:59:06;;;;;;;69.25;51.00;;;16.30;67.70;;;;;;4945862;28;95157;-54
2022/11/12 08:01:37;;;;;;;71.60;50.97;;;16.30;67.50;;;;;;4941960;28;95897;-55
2022/11/12 08:04:05;;;;;;;69.88;51.38;;;16.30;67.50;;;;;;4947617;28;97849;-55
2022/11/12 08:06:31;;;;;;;68.95;50.60;;;16.30;67.50;;;;;;4940270;28;96293;-56
2022/11/12 08:08:59;;;;;;;70.07;51.40;;;16.30;67.60;;;;;;4936908;28;95181;-55
2022/11/12 08:11:24;;;;;;;69.80;51.75;;;16.20;67.40;;;;;;4949311;28;95506;-54
2022/11/12 08:13:50;;;;;;;69.32;51.28;;;16.20;67.60;;;;;;4952332;28;95074;-56
2022/11/12 08:16:16;;;;;;;70.88;50.85;;;16.20;67.60;;;;;;4938658;28;96327;-55
2022/11/12 08:18:43;;;;;;;69.18;51.05;;;16.20;67.70;;;;;;4938594;28;96255;-54
2022/11/12 08:21:12;;;;;;;70.03;51.10;;;16.30;67.80;;;;;;4947994;28;96722;-55
2022/11/12 08:23:37;;;;;;;70.72;51.33;;;16.20;67.60;;;;;;4941136;28;95382;-55
2022/11/12 08:26:05;;;;;;;70.00;51.08;;;16.30;67.70;;;;;;4948714;28;95062;-54
2022/11/12 08:28:32;;;;;;;69.68;51.35;;;16.30;67.70;;;;;;4953952;28;94783;-54
2022/11/12 08:31:07;;;;;;;69.55;51.10;;;16.30;67.60;;;;;;4944588;28;95040;-56
2022/11/12 08:33:33;;;;;;;71.18;51.50;;;16.30;67.90;;;;;;4945988;28;95042;-54
2022/11/12 08:36:06;;;;;;;69.68;51.03;;;16.30;67.60;;;;;;4946982;28;94319;-55
2022/11/12 08:38:31;;;;;;;70.03;50.95;;;16.30;67.70;;;;;;4941169;28;95806;-54
2022/11/12 08:41:01;;;;;;;72.00;51.53;;;16.40;67.50;;;;;;4945818;28;97841;-54
2022/11/12 08:43:27;;;;;;;71.03;51.22;;;16.40;67.20;;;;;;4947724;28;95973;-55
2022/11/12 08:45:52;;;;;;;73.22;51.25;;;16.40;67.30;;;;;;4947326;28;96002;-55
2022/11/12 08:48:18;;;;;;;70.32;51.50;;;16.40;67.30;;;;;;4943602;28;96262;-56
2022/11/12 08:50:44;;;;;;;68.93;50.72;;;16.40;67.10;;;;;;4948287;28;96258;-53
2022/11/12 08:53:12;;;;;;;69.03;50.78;;;16.40;67.20;;;;;;4943402;28;96173;-55
2022/11/12 08:55:38;;;;;;;69.93;51.33;;;16.40;67.40;;;;;;4939972;28;97223;-56
2022/11/12 08:58:04;;;;;;;69.93;51.17;;;16.40;67.30;;;;;;4951231;28;95194;-55
2022/11/12 09:00:32;;;;;;;69.45;51.20;;;16.40;67.30;;;;;;4951148;28;95537;-56
2022/11/12 09:03:02;;;;;;;72.30;51.30;;;16.40;67.30;;;;;;4944874;28;96235;-54
2022/11/12 09:05:32;;;;;;;69.32;50.90;;;16.40;67.10;;;;;;4947678;28;94959;-55
2022/11/12 09:07:59;;;;;;;69.30;50.70;;;16.40;67.10;;;;;;4953912;28;96194;-55
2022/11/12 09:10:26;;;;;;;73.03;51.38;;;16.40;67.10;;;;;;4942019;28;95442;-55
2022/11/12 09:12:52;;;;;;;69.25;51.00;;;16.40;67.00;;;;;;4940183;28;95212;-54
2022/11/12 09:15:21;;;;;;;69.10;50.72;;;16.40;67.10;;;;;;4951109;28;95196;-56
2022/11/12 09:17:47;;;;;;;70.47;51.38;;;16.40;67.10;;;;;;4940465;28;96196;-54
2022/11/12 09:20:13;;;;;;;70.15;50.63;;;16.40;67.10;;;;;;4945122;28;97473;-54
2022/11/12 09:22:39;;;;;;;69.13;50.75;;;16.40;67.20;;;;;;4942148;28;96515;-54
2022/11/12 09:25:05;;;;;;;70.20;51.30;;;16.40;67.30;;;;;;4949075;28;94150;-54
2022/11/12 09:27:31;;;;;;;69.18;50.45;;;16.40;67.30;;;;;;4949903;28;96765;-54
2022/11/12 09:29:56;;;;;;;72.32;50.47;;;16.40;67.30;;;;;;4936002;28;95825;-56
2022/11/12 09:32:22;;;;;;;83.13;53.08;;;16.40;67.50;;;;;;4934543;28;96570;-54
2022/11/12 09:34:47;;;;;;;80.90;52.67;;;16.40;68.20;;;;;;4935665;28;99938;-54
2022/11/12 09:37:14;;;;;;;80.68;52.72;;;16.40;67.80;;;;;;4941274;28;95443;-54
2022/11/12 09:39:39;;;;;;;86.30;54.60;;;16.50;68.50;;;;;;4941762;28;96114;-58
2022/11/12 09:42:07;;;;;;;84.75;54.42;;;16.50;69.50;;;;;;4939866;28;95092;-55
2022/11/12 09:44:36;;;;;;;82.47;53.33;;;16.50;69.10;;;;;;4955866;28;95909;-52
2022/11/12 09:47:14;;;;;;;86.20;54.00;;;16.50;69.10;;;;;;4948742;28;95589;-53
2022/11/12 09:49:49;;;;;;;84.20;53.28;;;16.60;68.90;;;;;;4940538;28;94856;-51
2022/11/12 09:52:25;;;;;;;90.13;53.20;;;16.60;68.80;;;;;;4941834;28;94960;-50
2022/11/12 09:55:07;;;;;;;84.97;53.88;;;16.50;69.10;;;;;;4939529;28;95129;-49
2022/11/12 09:57:33;;;;;;;88.43;54.42;;;16.50;69.50;;;;;;4937590;28;96440;-53
2022/11/12 09:59:59;;;;;;;85.63;54.08;;;16.40;69.70;;;;;;4939229;28;95573;-51
2022/11/12 10:03:05;;;;;;;86.40;54.60;;;16.40;69.90;;;;;;4948256;28;95221;-53
2022/11/12 10:05:41;;;;;;;84.05;55.00;;;16.40;70.00;;;;;;4940857;28;95133;-54
2022/11/12 10:08:27;;;;;;;88.05;54.35;;;16.30;70.10;;;;;;4933447;28;95788;-53
2022/11/12 10:11:03;;;;;;;84.43;54.28;;;16.30;70.40;;;;;;4940944;28;97695;-54
2022/11/12 10:13:47;;;;;;;84.93;55.03;;;16.30;70.30;;;;;;4945913;28;95189;-54
2022/11/12 10:19:21;;;;;;;82.97;53.63;;;16.30;70.20;;;;;;4941652;28;94983;-54
2022/11/12 10:22:21;;;;;;;83.87;55.03;;;16.40;70.00;;;;;;4942957;28;95489;-54
2022/11/12 10:24:47;;;;;;;82.25;54.58;;;16.30;70.00;;;;;;4943304;28;96474;-52
2022/11/12 10:27:26;;;;;;;81.38;53.88;;;16.30;70.10;;;;;;4945189;28;95876;-53
2022/11/12 10:30:05;;;;;;;81.32;54.13;;;16.30;70.00;;;;;;4949347;28;94809;-53
2022/11/12 10:32:30;;;;;;;79.22;53.53;;;16.30;70.10;;;;;;4955060;28;95028;-53
2022/11/12 10:34:56;;;;;;;80.93;54.08;;;16.30;70.20;;;;;;4945929;28;95643;-53
2022/11/12 10:37:24;;;;;;;81.53;54.03;;;16.30;70.10;;;;;;4950600;28;97164;-54
2022/11/12 10:39:50;;;;;;;80.90;53.97;;;16.30;70.10;;;;;;4950070;28;96570;-54
2022/11/12 10:42:18;;;;;;;77.85;53.30;;;16.30;70.10;;;;;;4952830;28;95439;-53
2022/11/12 10:44:45;;;;;;;81.82;54.03;;;16.30;70.10;;;;;;4947018;28;95281;-51
2022/11/12 10:47:29;;;;;;;79.03;53.53;;;16.30;70.10;;;;;;4946141;28;97738;-54
2022/11/12 10:50:19;;;;;;;79.65;53.00;;;16.30;70.10;;;;;;4941356;28;96299;-56
2022/11/12 10:53:05;;;;;;;79.20;53.40;;;16.30;70.10;;;;;;4947766;28;95926;-54
2022/11/12 10:55:36;;;;;;;76.60;53.28;;;16.30;70.00;;;;;;4948053;28;95062;-51
2022/11/12 10:58:11;;;;;;;74.78;53.38;;;16.30;70.10;;;;;;4952406;28;96350;-55
2022/11/12 11:00:51;;;;;;;76.15;53.08;;;16.30;70.10;;;;;;4952715;28;95043;-54
2022/11/12 11:03:40;;;;;;;75.38;52.85;;;16.30;70.10;;;;;;4951651;28;95383;-52
2022/11/12 11:06:21;;;;;;;76.38;52.92;;;16.30;70.00;;;;;;4951681;28;95040;-52
2022/11/12 11:08:49;;;;;;;78.95;53.25;;;16.40;70.10;;;;;;4945453;28;97986;-54
2022/11/12 11:11:30;;;;;;;80.32;53.42;;;16.30;70.00;;;;;;4944918;28;95572;-52
2022/11/12 11:14:07;;;;;;;75.15;53.25;;;16.30;70.00;;;;;;4938424;28;96852;-52
2022/11/12 11:17:08;;;;;;;76.13;52.92;;;16.30;70.10;;;;;;4944166;28;98417;-53
2022/11/12 11:19:39;;;;;;;74.83;52.43;;;16.30;70.10;;;;;;4947706;28;95005;-54
2022/11/12 11:22:26;;;;;;;76.63;52.70;;;16.30;70.00;;;;;;4950431;28;95335;-53
2022/11/12 11:25:08;;;;;;;78.45;52.67;;;16.30;70.10;;;;;;4945948;28;96093;-51
2022/11/12 11:27:59;;;;;;;76.93;52.53;;;16.30;70.20;;;;;;4942463;28;97435;-52
2022/11/12 11:30:25;;;;;;;74.55;53.03;;;16.30;70.20;;;;;;4948241;28;95069;-51
2022/11/12 11:33:09;;;;;;;78.50;53.05;;;16.30;70.00;;;;;;4940649;28;100225;-50
2022/11/12 11:35:40;;;;;;;77.05;52.83;;;16.40;70.10;;;;;;4953374;28;95473;-50
2022/11/12 11:38:09;;;;;;;74.38;53.08;;;16.30;70.10;;;;;;4948167;28;95117;-53
2022/11/12 11:40:44;;;;;;;76.20;53.15;;;16.30;70.10;;;;;;4954867;28;94919;-54
2022/11/12 11:43:39;;;;;;;75.22;52.92;;;16.30;70.10;;;;;;4947911;28;96274;-54
2022/11/12 11:46:30;;;;;;;75.45;53.45;;;16.40;70.00;;;;;;4945743;28;96987;-54
2022/11/12 11:49:30;;;;;;;77.50;54.13;;;16.40;70.00;;;;;;4945184;28;100051;-55
2022/11/12 11:52:28;;;;;;;74.43;53.10;;;16.30;70.00;;;;;;4946138;28;95197;-51
2022/11/12 11:55:24;;;;;;;73.85;52.90;;;16.30;70.00;;;;;;4919181;28;96131;-56
2022/11/12 11:57:56;;;;;;;76.32;53.42;;;16.40;70.10;;;;;;4935041;28;96352;-55
2022/11/12 12:00:24;;;;;;;77.40;53.50;;;16.30;70.00;;;;;;4932010;28;95778;-51
2022/11/12 12:03:09;;;;;;;80.60;54.15;;;16.30;70.00;;;;;;4949533;28;94856;-50
2022/11/12 12:05:43;;;;;;;83.68;54.15;;;16.40;70.10;;;;;;4948263;28;97214;-51
2022/11/12 12:08:42;;;;;;;84.13;54.25;;;16.40;70.20;;;;;;4948166;28;96282;-52
2022/11/12 12:11:28;;;;;;;81.20;53.70;;;16.40;70.60;;;;;;4936900;28;96296;-54
2022/11/12 12:14:00;;;;;;;80.28;54.53;;;16.40;71.10;;;;;;4939557;28;94946;-52
2022/11/12 12:16:46;;;;;;;78.35;54.22;;;16.40;71.40;;;;;;4943896;28;95415;-53
2022/11/12 12:19:24;;;;;;;81.25;53.92;;;16.40;71.60;;;;;;4941978;28;95024;-53
2022/11/12 12:21:51;;;;;;;81.07;53.63;;;16.50;71.50;;;;;;4939951;28;96660;-53
2022/11/12 12:24:40;;;;;;;80.10;54.13;;;16.50;71.60;;;;;;4944482;28;98277;-54
2022/11/12 12:27:18;;;;;;;79.13;54.13;;;16.50;71.40;;;;;;4948130;28;97636;-56
2022/11/12 12:29:55;;;;;;;77.90;54.28;;;16.50;71.30;;;;;;4938615;28;97023;-55
2022/11/12 12:32:37;;;;;;;76.97;53.60;;;16.50;71.40;;;;;;4941674;28;96609;-55
2022/11/12 12:35:02;;;;;;;78.40;54.55;;;16.50;71.30;;;;;;4941469;28;96516;-55
2022/11/12 12:37:37;;;;;;;86.78;53.72;;;16.50;71.30;;;;;;4941016;28;96985;-54
2022/11/12 12:40:30;;;;;;;79.53;54.03;;;16.50;71.40;;;;;;4944189;28;100423;-54
2022/11/12 12:43:18;;;;;;;77.75;54.42;;;16.50;71.60;;;;;;4945718;28;95717;-56
2022/11/12 12:45:45;;;;;;;78.82;54.15;;;16.50;71.00;;;;;;4949273;28;94894;-55
2022/11/12 12:48:24;;;;;;;76.88;53.70;;;16.50;70.90;;;;;;4951427;28;96860;-53
2022/11/12 12:50:51;;;;;;;76.88;53.90;;;16.50;70.80;;;;;;4944992;28;95871;-55
2022/11/12 12:53:29;;;;;;;80.30;53.83;;;16.50;70.70;;;;;;4944491;28;97521;-53
2022/11/12 12:55:58;;;;;;;76.65;53.72;;;16.50;70.60;;;;;;4953546;28;94480;-56
2022/11/12 12:58:44;;;;;;;77.75;53.30;;;16.50;70.50;;;;;;4949828;28;97483;-55
2022/11/12 13:01:34;;;;;;;78.88;53.47;;;16.50;70.50;;;;;;4947140;28;95711;-55
2022/11/12 13:04:07;;;;;;;75.60;53.60;;;16.50;70.50;;;;;;4936983;28;96471;-55
2022/11/12 13:06:45;;;;;;;78.00;53.33;;;16.50;70.40;;;;;;4943819;28;96141;-55